createdAt,value
2018-08-03T00:00:39.854Z,23.40
2018-08-03T00:02:44.306Z,23.40
2018-08-03T00:04:48.767Z,23.30
2018-08-03T00:06:53.236Z,23.30
2018-08-03T00:08:57.934Z,23.30
2018-08-03T00:11:02.350Z,23.20
2018-08-03T00:13:06.881Z,23.20
2018-08-03T00:15:11.379Z,23.20
2018-08-03T00:17:15.810Z,23.20
2018-08-03T00:19:20.235Z,23.20
2018-08-03T00:21:24.733Z,23.10
2018-08-03T00:23:29.135Z,23.10
2018-08-03T00:25:33.759Z,23.00
2018-08-03T00:27:38.377Z,23.00
2018-08-03T00:29:42.827Z,23.00
2018-08-03T00:31:47.286Z,23.00
2018-08-03T00:33:51.885Z,22.90
2018-08-03T00:35:56.421Z,22.90
2018-08-03T00:40:05.174Z,22.80
2018-08-03T00:42:09.649Z,22.80
2018-08-03T00:44:14.120Z,22.80
2018-08-03T00:46:18.798Z,22.80
2018-08-03T00:48:23.234Z,22.70
2018-08-03T00:50:27.656Z,22.70
2018-08-03T00:52:32.117Z,22.70
2018-08-03T00:54:36.578Z,22.60
2018-08-03T00:56:41.005Z,22.70
2018-08-03T00:58:45.425Z,22.60
2018-08-03T01:00:51.723Z,22.60
2018-08-03T01:05:02.492Z,22.50
2018-08-03T01:07:10.024Z,22.50
2018-08-03T01:11:22.050Z,22.40
2018-08-03T01:13:28.391Z,22.40
2018-08-03T01:15:35.927Z,22.40
2018-08-03T01:17:41.349Z,22.30
2018-08-03T01:19:48.149Z,22.30
2018-08-03T01:21:55.356Z,22.20
2018-08-03T01:24:03.582Z,22.20
2018-08-03T01:26:09.020Z,22.20
2018-08-03T01:28:16.397Z,22.20
2018-08-03T01:32:31.192Z,22.10
2018-08-03T01:34:38.654Z,22.10
2018-08-03T01:36:44.041Z,22.10
2018-08-03T01:38:50.733Z,22.00
2018-08-03T01:40:58.523Z,22.00
2018-08-03T01:43:05.181Z,22.00
2018-08-03T01:45:12.066Z,22.00
2018-08-03T01:47:22.432Z,21.90
2018-08-03T01:51:36.488Z,21.90
2018-08-03T01:53:43.743Z,21.90
2018-08-03T01:55:53.053Z,21.80
2018-08-03T01:58:00.187Z,21.80
2018-08-03T02:00:07.546Z,21.80
2018-08-03T02:02:12.236Z,21.80
2018-08-03T02:04:20.147Z,21.70
2018-08-03T02:06:27.178Z,21.70
2018-08-03T02:08:32.541Z,21.70
2018-08-03T02:10:39.767Z,21.70
2018-08-03T02:12:47.557Z,21.70
2018-08-03T02:14:55.430Z,21.60
2018-08-03T02:17:03.028Z,21.60
2018-08-03T02:19:09.651Z,21.60
2018-08-03T02:21:15.193Z,21.60
2018-08-03T02:23:19.631Z,21.50
2018-08-03T02:25:24.038Z,21.50
2018-08-03T02:27:28.626Z,21.50
2018-08-03T02:29:33.070Z,21.50
2018-08-03T02:31:37.527Z,21.50
2018-08-03T02:33:42.019Z,21.50
2018-08-03T02:35:46.457Z,21.40
2018-08-03T02:37:50.914Z,21.40
2018-08-03T02:39:55.426Z,21.40
2018-08-03T02:41:59.936Z,21.40
2018-08-03T02:44:04.588Z,21.40
2018-08-03T02:46:09.034Z,21.40
2018-08-03T02:48:13.467Z,21.40
2018-08-03T02:50:18.537Z,21.30
2018-08-03T02:52:22.966Z,21.30
2018-08-03T02:54:27.538Z,21.30
2018-08-03T02:56:32.161Z,21.20
2018-08-03T02:58:36.660Z,21.20
2018-08-03T03:00:41.129Z,21.20
2018-08-03T03:02:45.621Z,21.20
2018-08-03T03:04:50.111Z,21.10
2018-08-03T03:06:54.631Z,21.10
2018-08-03T03:08:59.082Z,21.10
2018-08-03T03:13:07.926Z,21.00
2018-08-03T03:15:12.512Z,21.00
2018-08-03T03:17:16.946Z,21.00
2018-08-03T03:19:21.774Z,20.90
2018-08-03T03:21:26.220Z,20.90
2018-08-03T03:23:30.756Z,20.90
2018-08-03T03:25:35.206Z,20.90
2018-08-03T03:27:39.763Z,20.80
2018-08-03T03:29:44.217Z,20.80
2018-08-03T03:31:48.651Z,20.80
2018-08-03T03:33:53.353Z,20.80
2018-08-03T03:35:57.829Z,20.70
2018-08-03T03:38:02.335Z,20.70
2018-08-03T03:40:06.836Z,20.70
2018-08-03T03:42:11.298Z,20.70
2018-08-03T03:44:15.742Z,20.70
2018-08-03T03:46:21.612Z,20.60
2018-08-03T03:48:26.042Z,20.60
2018-08-03T03:50:30.496Z,20.60
2018-08-03T03:52:35.118Z,20.60
2018-08-03T03:54:39.642Z,20.60
2018-08-03T03:56:46.918Z,20.50
2018-08-03T03:58:52.190Z,20.50
2018-08-03T04:00:56.609Z,20.50
2018-08-03T04:03:03.137Z,20.50
2018-08-03T04:05:10.522Z,20.40
2018-08-03T04:07:17.764Z,20.40
2018-08-03T04:09:25.205Z,20.40
2018-08-03T04:11:32.497Z,20.40
2018-08-03T04:13:40.621Z,20.40
2018-08-03T04:15:49.049Z,20.30
2018-08-03T04:17:53.639Z,20.30
2018-08-03T04:19:58.245Z,20.30
2018-08-03T04:22:02.734Z,20.30
2018-08-03T04:24:07.341Z,20.20
2018-08-03T04:26:11.754Z,20.20
2018-08-03T04:28:16.186Z,20.20
2018-08-03T04:30:20.794Z,20.20
2018-08-03T04:32:25.269Z,20.20
2018-08-03T04:34:29.762Z,20.20
2018-08-03T04:36:34.198Z,20.10
2018-08-03T04:38:38.666Z,20.20
2018-08-03T04:40:43.191Z,20.20
2018-08-03T04:42:47.653Z,20.10
2018-08-03T04:44:53.780Z,20.10
2018-08-03T04:46:58.239Z,20.10
2018-08-03T04:49:02.774Z,20.10
2018-08-03T04:51:07.896Z,20.10
2018-08-03T04:53:12.394Z,20.10
2018-08-03T04:55:16.899Z,20.10
2018-08-03T04:57:21.342Z,20.10
2018-08-03T04:59:25.823Z,20.10
2018-08-03T05:01:30.282Z,20.10
2018-08-03T05:03:34.733Z,20.10
2018-08-03T05:05:39.226Z,20.10
2018-08-03T05:07:43.662Z,20.10
2018-08-03T05:09:48.106Z,20.10
2018-08-03T05:11:52.604Z,20.10
2018-08-03T05:13:57.063Z,20.10
2018-08-03T05:16:01.462Z,20.10
2018-08-03T05:18:06.276Z,20.10
2018-08-03T05:20:10.838Z,20.10
2018-08-03T05:22:15.283Z,20.10
2018-08-03T05:24:19.849Z,20.20
2018-08-03T05:26:24.257Z,20.20
2018-08-03T05:28:28.703Z,20.20
2018-08-03T05:30:35.506Z,20.20
2018-08-03T05:32:45.019Z,20.30
2018-08-03T05:34:49.614Z,20.30
2018-08-03T05:36:54.038Z,20.30
2018-08-03T05:41:03.391Z,20.40
2018-08-03T05:43:07.843Z,20.40
2018-08-03T05:45:12.336Z,20.40
2018-08-03T05:47:16.758Z,20.50
2018-08-03T05:49:21.213Z,20.50
2018-08-03T05:51:25.689Z,20.60
2018-08-03T05:53:30.129Z,20.60
2018-08-03T05:55:34.598Z,20.70
2018-08-03T05:57:39.019Z,20.70
2018-08-03T05:59:43.503Z,20.80
2018-08-03T06:01:47.989Z,20.90
2018-08-03T06:03:52.490Z,21.00
2018-08-03T06:05:57.946Z,21.00
2018-08-03T06:08:02.535Z,21.10
2018-08-03T06:10:07.126Z,21.20
2018-08-03T06:12:11.675Z,21.30
2018-08-03T06:14:16.174Z,21.40
2018-08-03T06:16:20.593Z,21.50
2018-08-03T06:18:25.054Z,21.60
2018-08-03T06:20:29.538Z,21.70
2018-08-03T06:22:34.014Z,21.80
2018-08-03T06:26:42.685Z,22.00
2018-08-03T06:28:47.119Z,22.10
2018-08-03T06:32:58.946Z,22.20
2018-08-03T06:35:03.634Z,22.30
2018-08-03T06:37:09.193Z,22.50
2018-08-03T06:39:13.664Z,22.50
2018-08-03T06:41:18.084Z,22.60
2018-08-03T06:43:22.542Z,22.70
2018-08-03T06:45:27.006Z,22.90
2018-08-03T06:47:31.482Z,22.90
2018-08-03T06:49:35.913Z,23.00
2018-08-03T06:51:40.434Z,23.10
2018-08-03T06:53:45.083Z,23.20
2018-08-03T06:55:49.575Z,23.30
2018-08-03T06:57:54.050Z,23.40
2018-08-03T06:59:58.458Z,23.60
2018-08-03T07:02:02.964Z,23.70
2018-08-03T07:04:07.744Z,23.80
2018-08-03T07:06:12.242Z,23.90
2018-08-03T07:08:16.677Z,24.00
2018-08-03T07:10:21.157Z,24.10
2018-08-03T07:12:25.662Z,24.20
2018-08-03T07:14:30.157Z,24.30
2018-08-03T07:16:34.824Z,24.50
2018-08-03T07:18:39.289Z,24.60
2018-08-03T07:22:48.715Z,24.80
2018-08-03T07:24:53.151Z,24.90
2018-08-03T07:26:57.603Z,25.00
2018-08-03T07:29:02.058Z,25.10
2018-08-03T07:31:06.549Z,25.30
2018-08-03T07:33:11.029Z,25.40
2018-08-03T07:35:15.523Z,25.50
2018-08-03T07:37:19.973Z,25.70
2018-08-03T07:39:24.428Z,25.80
2018-08-03T07:43:33.792Z,26.10
2018-08-03T07:45:38.440Z,26.20
2018-08-03T07:47:42.939Z,26.30
2018-08-03T07:49:47.391Z,26.50
2018-08-03T07:51:51.952Z,26.70
2018-08-03T07:53:56.423Z,26.80
2018-08-03T07:56:00.973Z,27.00
2018-08-03T07:58:05.648Z,27.10
2018-08-03T08:00:10.167Z,27.30
2018-08-03T08:02:14.726Z,27.50
2018-08-03T08:04:19.807Z,27.60
2018-08-03T08:06:24.343Z,27.80
2018-08-03T08:08:28.771Z,28.00
2018-08-03T08:10:33.218Z,28.20
2018-08-03T08:12:37.675Z,28.30
2018-08-03T08:14:42.099Z,28.50
2018-08-03T08:16:46.598Z,28.60
2018-08-03T08:18:51.028Z,28.80
2018-08-03T08:20:55.981Z,29.00
2018-08-03T08:23:00.534Z,29.20
2018-08-03T08:25:05.110Z,29.30
2018-08-03T08:27:09.647Z,29.50
2018-08-03T08:29:14.133Z,29.60
2018-08-03T08:31:18.602Z,29.80
2018-08-03T08:33:23.662Z,29.90
2018-08-03T08:35:32.207Z,30.10
2018-08-03T08:37:40.639Z,30.30
2018-08-03T08:39:45.246Z,30.40
2018-08-03T08:41:49.755Z,30.60
2018-08-03T08:43:54.492Z,30.80
2018-08-03T08:45:59.046Z,30.90
2018-08-03T08:48:03.530Z,31.10
2018-08-03T08:50:09.429Z,31.20
2018-08-03T08:52:14.995Z,31.40
2018-08-03T08:54:24.332Z,31.50
2018-08-03T08:56:30.144Z,31.60
2018-08-03T08:58:42.146Z,31.70
2018-08-03T09:00:47.732Z,31.80
2018-08-03T09:02:52.264Z,32.00
2018-08-03T09:04:56.775Z,32.10
2018-08-03T09:07:01.275Z,32.20
2018-08-03T09:09:09.290Z,32.30
2018-08-03T09:13:19.154Z,32.50
2018-08-03T09:15:23.659Z,32.60
2018-08-03T09:17:28.138Z,32.70
2018-08-03T09:19:32.566Z,32.90
2018-08-03T09:21:37.090Z,33.00
2018-08-03T09:23:41.563Z,33.10
2018-08-03T09:25:46.299Z,33.20
2018-08-03T09:27:50.878Z,33.30
2018-08-03T09:29:55.366Z,33.40
2018-08-03T09:31:59.869Z,33.50
2018-08-03T09:34:04.405Z,33.60
2018-08-03T09:36:08.986Z,33.70
2018-08-03T09:38:13.521Z,33.80
2018-08-03T09:40:19.694Z,33.90
2018-08-03T09:42:24.342Z,33.90
2018-08-03T09:44:28.897Z,34.00
2018-08-03T09:46:33.351Z,34.10
2018-08-03T09:48:37.805Z,34.20
2018-08-03T09:50:42.299Z,34.30
2018-08-03T09:52:46.799Z,34.40
2018-08-03T09:54:51.275Z,34.40
2018-08-03T09:56:55.787Z,34.50
2018-08-03T09:59:00.251Z,34.60
2018-08-03T10:01:10.958Z,34.70
2018-08-03T10:03:18.885Z,34.70
2018-08-03T10:05:23.451Z,34.80
2018-08-03T10:07:27.909Z,34.90
2018-08-03T10:09:32.350Z,34.90
2018-08-03T10:11:36.976Z,35.00
2018-08-03T10:13:41.506Z,35.10
2018-08-03T10:15:45.964Z,35.10
2018-08-03T10:17:50.508Z,35.20
2018-08-03T10:19:54.987Z,35.20
2018-08-03T10:21:59.525Z,35.30
2018-08-03T10:24:04.086Z,35.40
2018-08-03T10:26:08.585Z,35.40
2018-08-03T10:28:13.053Z,35.50
2018-08-03T10:30:17.487Z,35.60
2018-08-03T10:32:22.027Z,35.70
2018-08-03T10:34:26.529Z,35.70
2018-08-03T10:36:31.117Z,35.70
2018-08-03T10:38:35.558Z,35.80
2018-08-03T10:40:40.012Z,35.90
2018-08-03T10:42:44.470Z,36.00
2018-08-03T10:44:48.969Z,36.00
2018-08-03T10:46:53.546Z,36.00
2018-08-03T10:48:58.016Z,36.20
2018-08-03T10:51:02.452Z,36.20
2018-08-03T10:53:07.609Z,36.20
2018-08-03T10:55:12.176Z,36.30
2018-08-03T10:57:16.654Z,36.40
2018-08-03T10:59:21.143Z,36.40
2018-08-03T11:01:26.361Z,36.50
2018-08-03T11:03:30.723Z,36.50
2018-08-03T11:05:35.238Z,36.50
2018-08-03T11:07:39.669Z,36.70
2018-08-03T11:09:44.393Z,36.70
2018-08-03T11:11:48.866Z,36.80
2018-08-03T11:13:53.409Z,36.90
2018-08-03T11:15:57.893Z,36.90
2018-08-03T11:18:02.418Z,37.00
2018-08-03T11:20:07.014Z,37.10
2018-08-03T11:22:11.503Z,37.20
2018-08-03T11:26:20.498Z,37.40
2018-08-03T11:28:25.401Z,37.50
2018-08-03T11:30:29.941Z,37.50
2018-08-03T11:32:34.910Z,37.50
2018-08-03T11:34:39.386Z,37.70
2018-08-03T11:36:43.859Z,37.70
2018-08-03T11:38:48.303Z,37.70
2018-08-03T11:40:52.868Z,37.70
2018-08-03T11:42:59.058Z,37.70
2018-08-03T11:45:03.804Z,37.80
2018-08-03T11:47:08.620Z,37.80
2018-08-03T11:49:13.055Z,37.90
2018-08-03T11:51:17.542Z,37.90
2018-08-03T11:53:22.569Z,37.90
2018-08-03T11:55:27.042Z,37.90
2018-08-03T11:57:31.467Z,38.00
2018-08-03T11:59:36.002Z,38.00
2018-08-03T12:01:40.422Z,38.10
2018-08-03T12:03:45.409Z,38.10
2018-08-03T12:05:49.867Z,38.10
2018-08-03T12:07:54.318Z,38.30
2018-08-03T12:09:59.076Z,38.30
2018-08-03T12:14:07.710Z,38.50
2018-08-03T12:16:12.202Z,38.50
2018-08-03T12:18:16.716Z,38.50
2018-08-03T12:20:21.178Z,38.70
2018-08-03T12:22:25.578Z,38.70
2018-08-03T12:26:35.537Z,38.80
2018-08-03T12:28:41.035Z,38.90
2018-08-03T12:34:55.160Z,39.00
2018-08-03T12:39:05.079Z,39.10
2018-08-03T12:41:09.615Z,39.10
2018-08-03T12:43:14.170Z,39.10
2018-08-03T12:45:18.788Z,39.20
2018-08-03T12:47:23.239Z,39.20
2018-08-03T12:49:27.669Z,39.30
2018-08-03T12:51:32.152Z,39.30
2018-08-03T12:53:36.838Z,39.30
2018-08-03T12:57:45.631Z,39.40
2018-08-03T12:59:50.213Z,39.40
2018-08-03T13:01:54.990Z,39.50
2018-08-03T13:03:59.575Z,39.50
2018-08-03T13:06:04.146Z,39.50
2018-08-03T13:08:09.506Z,39.60
2018-08-03T13:10:13.995Z,39.60
2018-08-03T13:12:18.395Z,39.60
2018-08-03T13:14:23.060Z,39.60
2018-08-03T13:16:27.562Z,39.60
2018-08-03T13:18:32.241Z,39.60
2018-08-03T13:20:37.394Z,39.70
2018-08-03T13:22:42.612Z,39.70
2018-08-03T13:24:47.133Z,39.70
2018-08-03T13:26:51.628Z,39.70
2018-08-03T13:31:00.742Z,39.70
2018-08-03T13:33:05.221Z,39.70
2018-08-03T13:35:09.695Z,39.70
2018-08-03T13:37:14.500Z,39.70
2018-08-03T13:39:18.978Z,39.70
2018-08-03T13:41:23.526Z,39.70
2018-08-03T13:43:27.964Z,39.80
2018-08-03T13:45:32.479Z,39.80
2018-08-03T13:47:37.019Z,39.80
2018-08-03T13:49:41.547Z,39.90
2018-08-03T13:51:46.017Z,39.90
2018-08-03T13:53:50.451Z,40.00
2018-08-03T13:55:55.279Z,40.00
2018-08-03T13:57:59.741Z,40.00
2018-08-03T14:00:05.240Z,40.10
2018-08-03T14:02:22.507Z,40.10
2018-08-03T14:04:27.147Z,40.20
2018-08-03T14:06:31.678Z,40.20
2018-08-03T14:08:36.317Z,40.20
2018-08-03T14:10:41.020Z,40.20
2018-08-03T14:12:45.552Z,40.20
2018-08-03T14:14:50.011Z,40.30
2018-08-03T14:16:54.534Z,40.30
2018-08-03T14:18:58.969Z,40.30
2018-08-03T14:21:03.462Z,40.30
2018-08-03T14:23:07.955Z,40.30
2018-08-03T14:25:12.391Z,40.30
2018-08-03T14:27:16.901Z,40.20
2018-08-03T14:29:21.346Z,40.20
2018-08-03T14:31:25.930Z,40.20
2018-08-03T14:33:30.773Z,40.20
2018-08-03T14:35:35.293Z,40.20
2018-08-03T14:37:39.988Z,40.20
2018-08-03T14:39:44.478Z,40.30
2018-08-03T14:41:49.479Z,40.30
2018-08-03T14:43:54.043Z,40.30
2018-08-03T14:45:58.722Z,40.30
2018-08-03T14:48:03.236Z,40.40
2018-08-03T14:50:07.917Z,40.40
2018-08-03T14:52:12.413Z,40.40
2018-08-03T14:54:16.921Z,40.40
2018-08-03T14:56:21.414Z,40.40
2018-08-03T14:58:25.855Z,40.30
2018-08-03T15:00:30.262Z,40.30
2018-08-03T15:02:34.967Z,40.30
2018-08-03T15:04:39.678Z,40.30
2018-08-03T15:06:44.528Z,40.30
2018-08-03T15:08:49.007Z,40.20
2018-08-03T15:10:53.442Z,40.20
2018-08-03T15:12:57.957Z,40.20
2018-08-03T15:15:02.446Z,40.20
2018-08-03T15:17:07.433Z,40.20
2018-08-03T15:19:12.279Z,40.20
2018-08-03T15:21:17.218Z,40.20
2018-08-03T15:23:21.743Z,40.20
2018-08-03T15:25:26.446Z,40.20
2018-08-03T15:27:30.897Z,40.30
2018-08-03T15:29:35.326Z,40.30
2018-08-03T15:31:40.026Z,40.30
2018-08-03T15:33:45.217Z,40.30
2018-08-03T15:35:49.727Z,40.30
2018-08-03T15:37:54.327Z,40.30
2018-08-03T15:39:58.849Z,40.30
2018-08-03T15:42:03.405Z,40.30
2018-08-03T15:44:07.880Z,40.40
2018-08-03T15:46:12.339Z,40.30
2018-08-03T15:48:16.830Z,40.30
2018-08-03T15:50:21.400Z,40.30
2018-08-03T15:52:26.060Z,40.40
2018-08-03T15:54:30.494Z,40.40
2018-08-03T15:56:34.911Z,40.40
2018-08-03T15:58:39.541Z,40.40
2018-08-03T16:00:44.123Z,40.40
2018-08-03T16:02:49.175Z,40.40
2018-08-03T16:04:54.401Z,40.40
2018-08-03T16:07:00.595Z,40.40
2018-08-03T16:09:07.924Z,40.40
2018-08-03T16:11:12.382Z,40.40
2018-08-03T16:13:16.841Z,40.30
2018-08-03T16:17:25.743Z,40.30
2018-08-03T16:19:30.213Z,40.20
2018-08-03T16:21:35.605Z,40.20
2018-08-03T16:25:44.945Z,40.00
2018-08-03T16:27:49.475Z,39.90
2018-08-03T16:29:53.937Z,39.80
2018-08-03T16:31:58.452Z,39.70
2018-08-03T16:34:02.936Z,39.60
2018-08-03T16:36:07.427Z,39.60
2018-08-03T16:38:11.902Z,39.50
2018-08-03T16:40:16.442Z,39.40
2018-08-03T16:42:22.337Z,39.30
2018-08-03T16:44:27.520Z,39.20
2018-08-03T16:46:32.060Z,39.10
2018-08-03T16:48:36.887Z,39.00
2018-08-03T16:50:41.440Z,38.90
2018-08-03T16:52:46.501Z,38.70
2018-08-03T16:54:51.642Z,38.70
2018-08-03T16:56:56.065Z,38.60
2018-08-03T16:59:00.740Z,38.50
2018-08-03T17:01:05.241Z,38.40
2018-08-03T17:03:10.508Z,38.30
2018-08-03T17:05:14.936Z,38.20
2018-08-03T17:07:19.371Z,38.10
2018-08-03T17:09:23.905Z,38.00
2018-08-03T17:11:28.442Z,37.90
2018-08-03T17:13:32.980Z,37.90
2018-08-03T17:15:37.493Z,37.80
2018-08-03T17:17:42.021Z,37.70
2018-08-03T17:19:46.496Z,37.60
2018-08-03T17:21:50.944Z,37.50
2018-08-03T17:23:55.504Z,37.40
2018-08-03T17:25:59.955Z,37.30
2018-08-03T17:28:04.522Z,37.20
2018-08-03T17:30:09.094Z,37.10
2018-08-03T17:32:13.585Z,37.00
2018-08-03T17:34:19.853Z,36.90
2018-08-03T17:36:24.683Z,36.80
2018-08-03T17:38:29.226Z,36.70
2018-08-03T17:40:33.737Z,36.60
2018-08-03T17:44:43.465Z,36.40
2018-08-03T17:46:47.891Z,36.30
2018-08-03T17:48:52.834Z,36.20
2018-08-03T17:50:57.346Z,36.10
2018-08-03T17:53:01.848Z,36.00
2018-08-03T17:55:06.733Z,35.90
2018-08-03T17:57:11.269Z,35.80
2018-08-03T17:59:15.726Z,35.60
2018-08-03T18:03:24.626Z,35.40
2018-08-03T18:05:29.073Z,35.30
2018-08-03T18:07:33.600Z,35.20
2018-08-03T18:09:38.135Z,35.10
2018-08-03T18:11:42.635Z,34.90
2018-08-03T18:15:51.423Z,34.70
2018-08-03T18:17:55.867Z,34.60
2018-08-03T18:20:00.348Z,34.50
2018-08-03T18:22:04.846Z,34.30
2018-08-03T18:24:09.411Z,34.30
2018-08-03T18:26:13.870Z,34.10
2018-08-03T18:28:18.351Z,34.00
2018-08-03T18:30:22.867Z,34.00
2018-08-03T18:32:27.382Z,33.80
2018-08-03T18:34:33.511Z,33.70
2018-08-03T18:36:37.965Z,33.60
2018-08-03T18:38:42.430Z,33.50
2018-08-03T18:40:46.883Z,33.40
2018-08-03T18:42:51.473Z,33.40
2018-08-03T18:44:56.015Z,33.20
2018-08-03T18:47:00.514Z,33.10
2018-08-03T18:49:05.231Z,33.00
2018-08-03T18:51:09.904Z,32.90
2018-08-03T18:55:18.636Z,32.70
2018-08-03T18:57:24.037Z,32.70
2018-08-03T18:59:28.538Z,32.50
2018-08-03T19:01:33.007Z,32.40
2018-08-03T19:03:37.467Z,32.30
2018-08-03T19:05:41.910Z,32.20
2018-08-03T19:07:46.445Z,32.10
2018-08-03T19:09:51.651Z,32.00
2018-08-03T19:11:56.155Z,32.00
2018-08-03T19:14:00.622Z,31.80
2018-08-03T19:16:05.088Z,31.70
2018-08-03T19:18:09.610Z,31.60
2018-08-03T19:20:14.879Z,31.50
2018-08-03T19:22:19.887Z,31.40
2018-08-03T19:24:26.486Z,31.40
2018-08-03T19:26:31.625Z,31.30
2018-08-03T19:28:40.190Z,31.20
2018-08-03T19:30:45.492Z,31.10
2018-08-03T19:32:50.562Z,31.00
2018-08-03T19:34:55.465Z,30.90
2018-08-03T19:37:00.782Z,30.80
2018-08-03T19:39:08.557Z,30.80
2018-08-03T19:41:14.343Z,30.70
2018-08-03T19:43:19.776Z,30.60
2018-08-03T19:47:29.767Z,30.50
2018-08-03T19:49:35.014Z,30.40
2018-08-03T19:51:39.549Z,30.30
2018-08-03T19:53:43.986Z,30.20
2018-08-03T19:55:48.985Z,30.10
2018-08-03T19:57:53.571Z,30.10
2018-08-03T19:59:58.022Z,30.00
2018-08-03T20:02:02.737Z,29.90
2018-08-03T20:04:12.410Z,29.70
2018-08-03T20:06:16.854Z,29.60
2018-08-03T20:08:21.335Z,29.50
2018-08-03T20:10:26.257Z,29.50
2018-08-03T20:12:30.708Z,29.40
2018-08-03T20:14:35.277Z,29.40
2018-08-03T20:16:40.234Z,29.30
2018-08-03T20:18:44.751Z,29.20
2018-08-03T20:20:49.246Z,29.20
2018-08-03T20:22:53.691Z,29.10
2018-08-03T20:24:58.688Z,29.00
2018-08-03T20:27:03.461Z,29.00
2018-08-03T20:29:08.074Z,28.90
2018-08-03T20:31:12.597Z,28.90
2018-08-03T20:33:17.038Z,28.80
2018-08-03T20:35:21.551Z,28.80
2018-08-03T20:37:26.479Z,28.70
2018-08-03T20:39:31.202Z,28.60
2018-08-03T20:41:35.883Z,28.50
2018-08-03T20:43:40.434Z,28.40
2018-08-03T20:45:44.989Z,28.40
2018-08-03T20:47:49.617Z,28.30
2018-08-03T20:49:54.130Z,28.20
2018-08-03T20:51:58.627Z,28.20
2018-08-03T20:54:03.091Z,28.10
2018-08-03T20:56:07.610Z,28.10
2018-08-03T20:58:12.046Z,28.00
2018-08-03T21:00:17.286Z,27.90
2018-08-03T21:02:21.744Z,27.90
2018-08-03T21:04:26.319Z,27.80
2018-08-03T21:06:30.692Z,27.70
2018-08-03T21:08:35.254Z,27.70
2018-08-03T21:10:40.296Z,27.60
2018-08-03T21:12:44.775Z,27.60
2018-08-03T21:14:49.196Z,27.50
2018-08-03T21:16:53.631Z,27.50
2018-08-03T21:18:58.050Z,27.50
2018-08-03T21:21:02.593Z,27.40
2018-08-03T21:23:07.618Z,27.40
2018-08-03T21:25:12.062Z,27.40
2018-08-03T21:27:16.576Z,27.30
2018-08-03T21:29:21.048Z,27.30
2018-08-03T21:31:26.314Z,27.20
2018-08-03T21:33:30.926Z,27.20
2018-08-03T21:35:35.650Z,27.10
2018-08-03T21:37:40.701Z,27.10
2018-08-03T21:39:45.165Z,27.10
2018-08-03T21:41:55.294Z,27.00
2018-08-03T21:44:00.044Z,27.00
2018-08-03T21:46:04.502Z,26.90
2018-08-03T21:48:09.026Z,26.90
2018-08-03T21:50:14.177Z,26.80
2018-08-03T21:52:18.638Z,26.80
2018-08-03T21:54:23.155Z,26.70
2018-08-03T21:58:31.846Z,26.70
2018-08-03T22:00:36.351Z,26.60
2018-08-03T22:04:45.255Z,26.60
2018-08-03T22:06:49.958Z,26.60
2018-08-03T22:08:54.420Z,26.50
2018-08-03T22:10:59.489Z,26.50
2018-08-03T22:13:04.644Z,26.40
2018-08-03T22:15:09.186Z,26.40
2018-08-03T22:17:13.905Z,26.40
2018-08-03T22:19:18.468Z,26.30
2018-08-03T22:21:22.927Z,26.20
2018-08-03T22:23:27.845Z,26.20
2018-08-03T22:25:32.548Z,26.20
2018-08-03T22:27:37.123Z,26.10
2018-08-03T22:29:42.049Z,26.10
2018-08-03T22:31:47.044Z,26.10
2018-08-03T22:33:51.882Z,26.10
2018-08-03T22:35:56.579Z,26.00
2018-08-03T22:38:01.002Z,26.00
2018-08-03T22:40:05.907Z,26.00
2018-08-03T22:42:10.410Z,25.90
2018-08-03T22:44:14.842Z,25.90
2018-08-03T22:46:19.312Z,25.90
2018-08-03T22:54:40.430Z,25.80
2018-08-03T22:56:46.770Z,25.80
2018-08-03T22:58:52.625Z,25.70
2018-08-03T23:00:57.143Z,25.70
2018-08-03T23:03:01.755Z,25.70
2018-08-03T23:05:06.323Z,25.70
2018-08-03T23:07:10.968Z,25.70
2018-08-03T23:09:15.937Z,25.70
2018-08-03T23:11:20.413Z,25.60
2018-08-03T23:13:25.073Z,25.60
2018-08-03T23:15:33.023Z,25.60
2018-08-03T23:17:38.007Z,25.50
2018-08-03T23:19:42.471Z,25.50
2018-08-03T23:21:46.932Z,25.50
2018-08-03T23:23:51.984Z,25.50
2018-08-03T23:25:56.589Z,25.50
2018-08-03T23:28:01.177Z,25.40
2018-08-03T23:30:08.234Z,25.40
2018-08-03T23:32:12.791Z,25.40
2018-08-03T23:34:17.251Z,25.40
2018-08-03T23:36:21.787Z,25.30
2018-08-03T23:38:26.813Z,25.30
2018-08-03T23:40:31.454Z,25.30
2018-08-03T23:42:36.789Z,25.30
2018-08-03T23:44:41.229Z,25.30
2018-08-03T23:46:45.735Z,25.30
2018-08-03T23:48:50.219Z,25.30
2018-08-03T23:50:54.871Z,25.30
2018-08-03T23:52:59.410Z,25.30
2018-08-03T23:55:04.643Z,25.20
2018-08-03T23:57:09.477Z,25.20
2018-08-03T23:59:13.914Z,25.20
